Navajo Wingate Village, New Mexico
Current Conditions -  °F | °C
As of 11:53 PM on Saturday 22 Nov 2014 (Local Time) from KGUP Reporting Station
Few Clouds Few Clouds  
Wind Chill: 31°   Ceiling: Unl
Heat Index: 41°   Visibility: 10mi
Dew Point: 16°   Wind: 23mph
Humidity: 36%   Direction: 240°WSW
Pressure: 29.89"   Gusts: 32mph
Location:  35.5324°N, 108.6°W
Report Text: KGUP 230653Z AUTO 24020G28KT 10SM FEW100 05/M09 A2989 RMK AO2 PK WND 24028/0651 SLP061 T00501089 401221111
Loading
Personal Weather Stations






























Interactive Weather Map New forecast layout! Learn more

10-Day Weather Forecast

Advertisements
Track Severe Weather on mobile